createdAt,value
2018-12-24T00:01:14.128Z,100744.00
2018-12-24T00:03:43.622Z,100746.00
2018-12-24T00:06:13.452Z,100752.00
2018-12-24T00:08:42.925Z,100740.00
2018-12-24T00:11:12.411Z,100750.00
2018-12-24T00:13:41.897Z,100741.00
2018-12-24T00:16:11.371Z,100754.00
2018-12-24T00:18:41.325Z,100750.00
2018-12-24T00:21:10.798Z,100753.00
2018-12-24T00:23:40.276Z,100772.00
2018-12-24T00:26:09.771Z,100764.00
2018-12-24T00:28:39.484Z,100762.00
2018-12-24T00:31:08.956Z,100783.00
2018-12-24T00:33:38.441Z,100781.00
2018-12-24T00:36:08.042Z,100789.00
2018-12-24T00:38:37.475Z,100793.00
2018-12-24T00:41:07.503Z,100804.00
2018-12-24T00:43:36.974Z,100801.00
2018-12-24T00:46:06.457Z,100799.00
2018-12-24T00:48:35.963Z,100813.00
2018-12-24T00:51:06.283Z,100815.00
2018-12-24T00:53:35.762Z,100810.00
2018-12-24T00:56:05.249Z,100827.00
2018-12-24T00:58:34.720Z,100826.00
2018-12-24T01:01:04.196Z,100817.00
2018-12-24T01:03:33.955Z,100831.00
2018-12-24T01:06:03.428Z,100822.00
2018-12-24T01:08:32.903Z,100828.00
2018-12-24T01:11:02.395Z,100821.00
2018-12-24T01:13:32.140Z,100832.00
2018-12-24T01:16:03.092Z,100846.00
2018-12-24T01:18:32.596Z,100862.00
2018-12-24T01:21:02.067Z,100868.00
2018-12-24T01:23:31.543Z,100865.00
2018-12-24T01:26:01.638Z,100863.00
2018-12-24T01:28:31.158Z,100856.00
2018-12-24T01:31:00.626Z,100862.00
2018-12-24T01:33:30.115Z,100867.00
2018-12-24T01:35:59.593Z,100866.00
2018-12-24T01:38:29.066Z,100872.00
2018-12-24T01:40:58.558Z,100873.00
2018-12-24T01:43:28.032Z,100882.00
2018-12-24T01:45:57.764Z,100878.00
2018-12-24T01:48:27.518Z,100883.00
2018-12-24T01:50:57.734Z,100886.00
2018-12-24T01:53:27.418Z,100885.00
2018-12-24T01:55:56.910Z,100873.00
2018-12-24T01:58:26.452Z,100878.00
2018-12-24T02:00:57.473Z,100872.00
2018-12-24T02:03:26.987Z,100887.00
2018-12-24T02:05:56.864Z,100891.00
2018-12-24T02:08:26.293Z,100901.00
2018-12-24T02:10:55.807Z,100898.00
2018-12-24T02:13:25.290Z,100897.00
2018-12-24T02:15:54.774Z,100895.00
2018-12-24T02:18:24.256Z,100906.00
2018-12-24T02:20:53.729Z,100918.00
2018-12-24T02:23:23.201Z,100915.00
2018-12-24T02:25:52.765Z,100919.00
2018-12-24T02:28:22.242Z,100927.00
2018-12-24T02:30:51.710Z,100926.00
2018-12-24T02:33:21.547Z,100929.00
2018-12-24T02:35:51.025Z,100944.00
2018-12-24T02:38:20.498Z,100945.00
2018-12-24T02:40:49.992Z,100948.00
2018-12-24T02:43:19.464Z,100950.00
2018-12-24T02:45:48.940Z,100953.00
2018-12-24T02:48:18.657Z,100957.00
2018-12-24T02:50:48.135Z,100969.00
2018-12-24T02:53:17.620Z,100967.00
2018-12-24T02:55:47.943Z,100984.00
2018-12-24T02:58:17.426Z,100993.00
2018-12-24T03:00:46.900Z,100996.00
2018-12-24T03:03:16.400Z,100996.00
2018-12-24T03:05:45.885Z,100994.00
2018-12-24T03:08:15.344Z,101003.00
2018-12-24T03:10:45.143Z,101009.00
2018-12-24T03:13:14.616Z,101001.00
2018-12-24T03:15:44.101Z,101006.00
2018-12-24T03:18:13.916Z,101020.00
2018-12-24T03:20:43.378Z,101018.00
2018-12-24T03:23:12.848Z,101019.00
2018-12-24T03:25:43.432Z,101027.00
2018-12-24T03:28:12.908Z,101043.00
2018-12-24T03:30:42.381Z,101047.00
2018-12-24T03:33:11.866Z,101035.00
2018-12-24T03:35:41.335Z,101040.00
2018-12-24T03:38:10.805Z,101049.00
2018-12-24T03:40:40.839Z,101048.00
2018-12-24T03:43:12.855Z,101060.00
2018-12-24T03:45:42.710Z,101060.00
2018-12-24T03:48:12.197Z,101058.00
2018-12-24T03:50:41.936Z,101074.00
2018-12-24T03:53:11.403Z,101070.00
2018-12-24T03:55:41.240Z,101073.00
2018-12-24T03:58:10.707Z,101084.00
2018-12-24T04:00:40.183Z,101104.00
2018-12-24T04:03:09.668Z,101099.00
2018-12-24T04:05:39.144Z,101112.00
2018-12-24T04:08:08.612Z,101115.00
2018-12-24T04:10:38.103Z,101113.00
2018-12-24T04:13:07.564Z,101130.00
2018-12-24T04:15:37.116Z,101134.00
2018-12-24T04:18:06.944Z,101144.00
2018-12-24T04:20:36.412Z,101146.00
2018-12-24T04:23:05.878Z,101168.00
2018-12-24T04:25:37.005Z,101174.00
2018-12-24T04:28:06.484Z,101179.00
2018-12-24T04:30:35.949Z,101179.00
2018-12-24T04:33:05.447Z,101199.00
2018-12-24T04:35:34.913Z,101193.00
2018-12-24T04:38:04.390Z,101201.00
2018-12-24T04:40:34.333Z,101217.00
2018-12-24T04:43:03.805Z,101212.00
2018-12-24T04:45:33.272Z,101228.00
2018-12-24T04:48:02.765Z,101238.00
2018-12-24T04:50:32.234Z,101243.00
2018-12-24T04:53:01.705Z,101245.00
2018-12-24T04:55:31.532Z,101257.00
2018-12-24T04:58:01.007Z,101263.00
2018-12-24T05:00:30.639Z,101278.00
2018-12-24T05:03:00.399Z,101300.00
2018-12-24T05:05:29.875Z,101303.00
2018-12-24T05:07:59.347Z,101292.00
2018-12-24T05:10:28.831Z,101306.00
2018-12-24T05:12:58.306Z,101311.00
2018-12-24T05:15:27.790Z,101312.00
2018-12-24T05:17:57.273Z,101320.00
2018-12-24T05:20:26.744Z,101329.00
2018-12-24T05:22:56.219Z,101341.00
2018-12-24T05:25:25.900Z,101335.00
2018-12-24T05:27:55.373Z,101336.00
2018-12-24T05:30:25.867Z,101347.00
2018-12-24T05:32:56.173Z,101363.00
2018-12-24T05:35:27.084Z,101368.00
2018-12-24T05:37:56.557Z,101370.00
2018-12-24T05:40:26.131Z,101391.00
2018-12-24T05:42:55.594Z,101392.00
2018-12-24T05:45:25.068Z,101400.00
2018-12-24T05:47:55.042Z,101402.00
2018-12-24T05:50:24.622Z,101418.00
2018-12-24T05:52:55.198Z,101406.00
2018-12-24T05:55:24.683Z,101416.00
2018-12-24T05:57:54.162Z,101431.00
2018-12-24T06:00:23.641Z,101443.00
2018-12-24T06:02:53.434Z,101452.00
2018-12-24T06:05:22.913Z,101468.00
2018-12-24T06:07:52.421Z,101480.00
2018-12-24T06:10:22.081Z,101475.00
2018-12-24T06:12:51.528Z,101485.00
2018-12-24T06:15:21.380Z,101507.00
2018-12-24T06:17:50.842Z,101513.00
2018-12-24T06:20:20.309Z,101527.00
2018-12-24T06:22:49.777Z,101510.00
2018-12-24T06:25:22.263Z,101512.00
2018-12-24T06:27:51.732Z,101526.00
2018-12-24T06:30:21.208Z,101532.00
2018-12-24T06:32:51.023Z,101538.00
2018-12-24T06:35:20.499Z,101554.00
2018-12-24T06:37:49.967Z,101552.00
2018-12-24T06:40:19.768Z,101552.00
2018-12-24T06:42:49.353Z,101558.00
2018-12-24T06:45:18.800Z,101567.00
2018-12-24T06:47:48.284Z,101581.00
2018-12-24T06:50:17.758Z,101588.00
2018-12-24T06:52:47.234Z,101606.00
2018-12-24T06:55:17.053Z,101599.00
2018-12-24T06:57:46.533Z,101616.00
2018-12-24T07:00:19.113Z,101630.00
2018-12-24T07:02:48.592Z,101646.00
2018-12-24T07:05:18.426Z,101652.00
2018-12-24T07:07:47.914Z,101643.00
2018-12-24T07:10:17.400Z,101644.00
2018-12-24T07:12:46.879Z,101661.00
2018-12-24T07:15:16.360Z,101665.00
2018-12-24T07:17:46.178Z,101667.00
2018-12-24T07:20:15.723Z,101668.00
2018-12-24T07:22:45.191Z,101679.00
2018-12-24T07:25:14.668Z,101686.00
2018-12-24T07:27:44.135Z,101696.00
2018-12-24T07:30:13.603Z,101706.00
2018-12-24T07:32:43.339Z,101709.00
2018-12-24T07:35:12.809Z,101724.00
2018-12-24T07:37:42.595Z,101730.00
2018-12-24T07:40:12.582Z,101736.00
2018-12-24T07:42:42.052Z,101748.00
2018-12-24T07:45:11.545Z,101752.00
2018-12-24T07:47:41.022Z,101756.00
2018-12-24T07:50:10.498Z,101771.00
2018-12-24T07:52:39.970Z,101775.00
2018-12-24T07:55:09.633Z,101784.00
2018-12-24T07:57:39.086Z,101795.00
2018-12-24T08:00:09.339Z,101802.00
2018-12-24T08:02:39.015Z,101807.00
2018-12-24T08:05:09.166Z,101812.00
2018-12-24T08:07:39.244Z,101820.00
2018-12-24T08:10:09.407Z,101824.00
2018-12-24T08:12:38.888Z,101826.00
2018-12-24T08:15:09.477Z,101849.00
2018-12-24T08:17:38.965Z,101861.00
2018-12-24T08:20:08.752Z,101869.00
2018-12-24T08:22:38.232Z,101872.00
2018-12-24T08:25:08.478Z,101876.00
2018-12-24T08:27:37.944Z,101886.00
2018-12-24T08:30:08.095Z,101896.00
2018-12-24T08:32:37.578Z,101899.00
2018-12-24T08:35:08.880Z,101908.00
2018-12-24T08:37:38.353Z,101899.00
2018-12-24T08:40:09.003Z,101903.00
2018-12-24T08:42:38.476Z,101901.00
2018-12-24T08:45:08.476Z,101914.00
2018-12-24T08:47:37.985Z,101913.00
2018-12-24T08:50:07.465Z,101924.00
2018-12-24T08:52:36.929Z,101921.00
2018-12-24T08:55:07.544Z,101929.00
2018-12-24T08:57:37.023Z,101942.00
2018-12-24T09:00:07.246Z,101938.00
2018-12-24T09:02:37.290Z,101955.00
2018-12-24T09:05:07.435Z,101943.00
2018-12-24T09:07:36.919Z,101948.00
2018-12-24T09:10:07.094Z,101951.00
2018-12-24T09:12:36.903Z,101959.00
2018-12-24T09:15:09.208Z,101958.00
2018-12-24T09:17:38.747Z,101974.00
2018-12-24T09:20:09.807Z,101985.00
2018-12-24T09:22:39.277Z,101970.00
2018-12-24T09:25:08.759Z,101987.00
2018-12-24T09:27:38.260Z,101989.00
2018-12-24T09:30:11.250Z,102003.00
2018-12-24T09:32:40.908Z,102001.00
2018-12-24T09:35:10.383Z,102003.00
2018-12-24T09:37:39.851Z,102011.00
2018-12-24T09:40:13.351Z,102015.00
2018-12-24T09:42:42.817Z,102025.00
2018-12-24T09:45:14.389Z,102027.00
2018-12-24T09:47:44.475Z,102027.00
2018-12-24T09:50:13.967Z,102030.00
2018-12-24T09:52:43.437Z,102031.00
2018-12-24T09:55:12.916Z,102028.00
2018-12-24T09:57:42.379Z,102029.00
2018-12-24T10:00:15.263Z,102034.00
2018-12-24T10:02:46.507Z,102040.00
2018-12-24T10:05:19.191Z,102038.00
2018-12-24T10:07:48.847Z,102039.00
2018-12-24T10:10:19.165Z,102043.00
2018-12-24T10:12:48.808Z,102045.00
2018-12-24T10:15:18.287Z,102045.00
2018-12-24T10:17:47.987Z,102045.00
2018-12-24T10:20:17.452Z,102042.00
2018-12-24T10:22:46.919Z,102042.00
2018-12-24T10:25:16.410Z,102046.00
2018-12-24T10:27:45.884Z,102049.00
2018-12-24T10:30:15.367Z,102057.00
2018-12-24T10:32:44.859Z,102056.00
2018-12-24T10:35:14.325Z,102067.00
2018-12-24T10:37:43.859Z,102073.00
2018-12-24T10:40:14.144Z,102063.00
2018-12-24T10:42:43.613Z,102077.00
2018-12-24T10:45:16.507Z,102071.00
2018-12-24T10:47:45.549Z,102073.00
2018-12-24T10:50:15.012Z,102085.00
2018-12-24T10:52:44.493Z,102075.00
2018-12-24T10:55:13.981Z,102073.00
2018-12-24T10:57:43.458Z,102074.00
2018-12-24T11:00:13.773Z,102080.00
2018-12-24T11:02:43.750Z,102092.00
2018-12-24T11:05:13.790Z,102098.00
2018-12-24T11:07:43.539Z,102090.00
2018-12-24T11:10:13.042Z,102097.00
2018-12-24T11:12:42.511Z,102086.00
2018-12-24T11:15:12.421Z,102109.00
2018-12-24T11:17:41.894Z,102105.00
2018-12-24T11:20:11.363Z,102112.00
2018-12-24T11:22:40.831Z,102118.00
2018-12-24T11:25:10.481Z,102108.00
2018-12-24T11:27:39.958Z,102120.00
2018-12-24T11:30:09.496Z,102102.00
2018-12-24T11:32:38.984Z,102097.00
2018-12-24T11:35:09.403Z,102097.00
2018-12-24T11:37:39.160Z,102101.00
2018-12-24T11:40:09.235Z,102112.00
2018-12-24T11:42:38.703Z,102100.00
2018-12-24T11:45:10.527Z,102117.00
2018-12-24T11:47:40.484Z,102105.00
2018-12-24T11:50:09.962Z,102103.00
2018-12-24T11:52:39.431Z,102112.00
2018-12-24T11:55:09.617Z,102117.00
2018-12-24T11:57:39.266Z,102129.00
2018-12-24T12:00:09.067Z,102111.00
2018-12-24T12:02:38.543Z,102120.00
2018-12-24T12:05:09.129Z,102122.00
2018-12-24T12:07:39.605Z,102140.00
2018-12-24T12:10:09.830Z,102135.00
2018-12-24T12:12:39.296Z,102132.00
2018-12-24T12:15:09.706Z,102142.00
2018-12-24T12:17:39.229Z,102144.00
2018-12-24T12:20:09.153Z,102150.00
2018-12-24T12:22:40.073Z,102140.00
2018-12-24T12:25:09.558Z,102146.00
2018-12-24T12:27:39.032Z,102131.00
2018-12-24T12:30:10.391Z,102156.00
2018-12-24T12:32:39.903Z,102167.00
2018-12-24T12:35:10.034Z,102158.00
2018-12-24T12:37:39.498Z,102162.00
2018-12-24T12:40:08.982Z,102171.00
2018-12-24T12:42:38.451Z,102153.00
2018-12-24T12:45:08.843Z,102165.00
2018-12-24T12:47:38.335Z,102158.00
2018-12-24T12:50:08.105Z,102170.00
2018-12-24T12:52:37.593Z,102171.00
2018-12-24T12:55:08.412Z,102180.00
2018-12-24T12:57:37.888Z,102191.00
2018-12-24T13:00:07.933Z,102183.00
2018-12-24T13:02:37.427Z,102192.00
2018-12-24T13:05:09.185Z,102191.00
2018-12-24T13:07:38.661Z,102195.00
2018-12-24T13:10:10.438Z,102197.00
2018-12-24T13:12:39.983Z,102222.00
2018-12-24T13:15:09.464Z,102213.00
2018-12-24T13:17:38.947Z,102223.00
2018-12-24T13:20:08.745Z,102219.00
2018-12-24T13:22:38.211Z,102227.00
2018-12-24T13:25:09.239Z,102225.00
2018-12-24T13:27:38.710Z,102233.00
2018-12-24T13:30:09.164Z,102235.00
2018-12-24T13:32:39.087Z,102238.00
2018-12-24T13:35:09.420Z,102231.00
2018-12-24T13:37:38.897Z,102242.00
2018-12-24T13:40:09.377Z,102245.00
2018-12-24T13:42:38.853Z,102243.00
2018-12-24T13:45:10.314Z,102249.00
2018-12-24T13:47:42.450Z,102259.00
2018-12-24T13:50:11.927Z,102261.00
2018-12-24T13:52:41.391Z,102270.00
2018-12-24T13:55:47.544Z,102281.00
2018-12-24T13:58:18.104Z,102279.00
2018-12-24T14:00:49.006Z,102289.00
2018-12-24T14:03:18.691Z,102287.00
2018-12-24T14:05:48.053Z,102287.00
2018-12-24T14:08:17.423Z,102283.00
2018-12-24T14:10:47.165Z,102290.00
2018-12-24T14:13:16.535Z,102289.00
2018-12-24T14:15:45.904Z,102288.00
2018-12-24T14:18:15.270Z,102296.00
2018-12-24T14:20:44.641Z,102291.00
2018-12-24T14:23:14.032Z,102287.00
2018-12-24T14:25:43.886Z,102291.00
2018-12-24T14:28:13.256Z,102285.00
2018-12-24T14:30:42.618Z,102300.00
2018-12-24T14:33:12.027Z,102302.00
2018-12-24T14:35:41.383Z,102296.00
2018-12-24T14:38:10.752Z,102309.00
2018-12-24T14:40:40.405Z,102309.00
2018-12-24T14:43:09.776Z,102312.00
2018-12-24T14:45:39.146Z,102310.00
2018-12-24T14:48:08.990Z,102314.00
2018-12-24T14:50:38.351Z,102317.00
2018-12-24T14:53:07.722Z,102328.00
2018-12-24T14:55:37.106Z,102333.00
2018-12-24T14:58:06.477Z,102347.00
2018-12-24T15:00:35.841Z,102354.00
2018-12-24T15:03:05.477Z,102358.00
2018-12-24T15:05:34.848Z,102369.00
2018-12-24T15:08:04.211Z,102362.00
2018-12-24T15:10:33.620Z,102373.00
2018-12-24T15:13:02.987Z,102378.00
2018-12-24T15:15:32.371Z,102375.00
2018-12-24T15:18:01.749Z,102377.00
2018-12-24T15:20:31.125Z,102370.00
2018-12-24T15:23:00.495Z,102382.00
2018-12-24T15:25:30.139Z,102372.00
2018-12-24T15:27:59.550Z,102370.00
2018-12-24T15:30:28.882Z,102375.00
2018-12-24T15:32:58.611Z,102386.00
2018-12-24T15:35:27.989Z,102384.00
2018-12-24T15:37:57.360Z,102386.00
2018-12-24T15:40:26.752Z,102378.00
2018-12-24T15:42:56.110Z,102375.00
2018-12-24T15:45:25.477Z,102383.00
2018-12-24T15:47:54.860Z,102375.00
2018-12-24T15:50:24.231Z,102374.00
2018-12-24T15:52:53.603Z,102374.00
2018-12-24T15:55:23.148Z,102386.00
2018-12-24T15:57:52.518Z,102398.00
2018-12-24T16:00:21.884Z,102390.00
2018-12-24T16:02:51.271Z,102385.00
2018-12-24T16:05:20.629Z,102387.00
2018-12-24T16:07:50.003Z,102377.00
2018-12-24T16:10:19.403Z,102361.00
2018-12-24T16:12:48.765Z,102360.00
2018-12-24T16:15:18.157Z,102364.00
2018-12-24T16:17:48.210Z,102356.00
2018-12-24T16:20:17.583Z,102372.00
2018-12-24T16:22:46.957Z,102366.00
2018-12-24T16:25:16.346Z,102364.00
2018-12-24T16:27:45.912Z,102378.00
2018-12-24T16:30:15.285Z,102361.00
2018-12-24T16:32:44.672Z,102355.00
2018-12-24T16:35:14.052Z,102355.00
2018-12-24T16:37:43.424Z,102366.00
2018-12-24T16:40:13.250Z,102378.00
2018-12-24T16:42:42.588Z,102383.00
2018-12-24T16:45:11.972Z,102384.00
2018-12-24T16:47:41.347Z,102387.00
2018-12-24T16:50:10.716Z,102401.00
2018-12-24T16:52:40.082Z,102391.00
2018-12-24T16:55:09.458Z,102395.00
2018-12-24T16:57:41.209Z,102403.00
2018-12-24T17:00:10.303Z,102412.00
2018-12-24T17:02:40.109Z,102417.00
2018-12-24T17:05:11.529Z,102418.00
2018-12-24T17:07:40.898Z,102416.00
2018-12-24T17:10:10.277Z,102423.00
2018-12-24T17:12:39.639Z,102413.00
2018-12-24T17:15:10.552Z,102420.00
2018-12-24T17:17:39.933Z,102417.00
2018-12-24T17:20:09.312Z,102439.00
2018-12-24T17:22:38.693Z,102427.00
2018-12-24T17:25:08.631Z,102428.00
2018-12-24T17:27:38.001Z,102434.00
2018-12-24T17:30:08.605Z,102429.00
2018-12-24T17:32:37.988Z,102433.00
2018-12-24T17:35:08.473Z,102427.00
2018-12-24T17:37:37.838Z,102423.00
2018-12-24T17:40:07.832Z,102404.00
2018-12-24T17:42:37.193Z,102414.00
2018-12-24T17:45:07.368Z,102413.00
2018-12-24T17:47:37.172Z,102418.00
2018-12-24T17:50:08.232Z,102417.00
2018-12-24T17:52:37.593Z,102418.00
2018-12-24T17:55:07.754Z,102420.00
2018-12-24T17:57:38.416Z,102421.00
2018-12-24T18:00:08.909Z,102412.00
2018-12-24T18:02:38.585Z,102422.00
2018-12-24T18:05:09.067Z,102413.00
2018-12-24T18:07:38.786Z,102417.00
2018-12-24T18:10:09.281Z,102428.00
2018-12-24T18:12:38.914Z,102414.00
2018-12-24T18:15:08.988Z,102404.00
2018-12-24T18:17:39.021Z,102417.00
2018-12-24T18:20:09.579Z,102407.00
2018-12-24T18:22:38.947Z,102401.00
2018-12-24T18:25:09.564Z,102407.00
2018-12-24T18:27:38.946Z,102402.00
2018-12-24T18:30:09.065Z,102398.00
2018-12-24T18:32:39.138Z,102388.00
2018-12-24T18:35:09.444Z,102391.00
2018-12-24T18:37:38.822Z,102390.00
2018-12-24T18:40:08.881Z,102384.00
2018-12-24T18:42:38.332Z,102392.00
2018-12-24T18:45:08.805Z,102384.00
2018-12-24T18:47:42.561Z,102395.00
2018-12-24T18:50:11.930Z,102396.00
2018-12-24T18:52:41.304Z,102390.00
2018-12-24T18:55:10.688Z,102384.00
2018-12-24T18:57:40.347Z,102366.00
2018-12-24T19:00:11.295Z,102377.00
2018-12-24T19:02:41.253Z,102384.00
2018-12-24T19:05:10.620Z,102385.00
2018-12-24T19:07:39.984Z,102387.00
2018-12-24T19:10:09.438Z,102374.00
2018-12-24T19:12:40.075Z,102387.00
2018-12-24T19:15:09.449Z,102388.00
2018-12-24T19:17:41.548Z,102392.00
2018-12-24T19:20:11.532Z,102401.00
2018-12-24T19:22:40.903Z,102395.00
2018-12-24T19:25:10.783Z,102416.00
2018-12-24T19:27:40.147Z,102413.00
2018-12-24T19:30:09.969Z,102422.00
2018-12-24T19:32:39.342Z,102428.00
2018-12-24T19:35:09.605Z,102418.00
2018-12-24T19:37:39.305Z,102421.00
2018-12-24T19:40:09.125Z,102441.00
2018-12-24T19:42:38.512Z,102447.00
2018-12-24T19:45:08.897Z,102452.00
2018-12-24T19:47:38.592Z,102457.00
2018-12-24T19:50:09.078Z,102444.00
2018-12-24T19:52:38.478Z,102450.00
2018-12-24T19:55:08.977Z,102447.00
2018-12-24T19:57:38.677Z,102448.00
2018-12-24T20:00:09.674Z,102444.00
2018-12-24T20:02:39.315Z,102434.00
2018-12-24T20:05:09.264Z,102442.00
2018-12-24T20:07:38.631Z,102446.00
2018-12-24T20:10:09.127Z,102445.00
2018-12-24T20:12:38.499Z,102450.00
2018-12-24T20:15:09.424Z,102439.00
2018-12-24T20:17:38.816Z,102444.00
2018-12-24T20:20:09.336Z,102449.00
2018-12-24T20:22:38.705Z,102450.00
2018-12-24T20:25:09.156Z,102445.00
2018-12-24T20:27:38.528Z,102447.00
2018-12-24T20:30:08.738Z,102447.00
2018-12-24T20:32:38.123Z,102441.00
2018-12-24T20:35:08.068Z,102450.00
2018-12-24T20:37:37.894Z,102455.00
2018-12-24T20:40:07.401Z,102460.00
2018-12-24T20:42:36.771Z,102447.00
2018-12-24T20:45:07.268Z,102453.00
2018-12-24T20:47:36.834Z,102447.00
2018-12-24T20:50:06.208Z,102454.00
2018-12-24T20:52:36.317Z,102447.00
2018-12-24T20:55:05.747Z,102448.00
2018-12-24T20:57:35.108Z,102447.00
2018-12-24T21:00:05.515Z,102439.00
2018-12-24T21:02:36.016Z,102443.00
2018-12-24T21:05:06.690Z,102437.00
2018-12-24T21:07:36.053Z,102430.00
2018-12-24T21:10:06.804Z,102430.00
2018-12-24T21:12:36.172Z,102417.00
2018-12-24T21:15:07.553Z,102408.00
2018-12-24T21:17:36.922Z,102410.00
2018-12-24T21:20:07.537Z,102410.00
2018-12-24T21:22:36.903Z,102400.00
2018-12-24T21:25:06.925Z,102418.00
2018-12-24T21:27:36.288Z,102407.00
2018-12-24T21:30:07.165Z,102399.00
2018-12-24T21:32:36.752Z,102397.00
2018-12-24T21:35:06.140Z,102386.00
2018-12-24T21:37:35.578Z,102393.00
2018-12-24T21:40:05.065Z,102386.00
2018-12-24T21:42:34.440Z,102396.00
2018-12-24T21:45:03.872Z,102383.00
2018-12-24T21:47:33.251Z,102381.00
2018-12-24T21:50:02.625Z,102377.00
2018-12-24T21:52:31.992Z,102384.00
2018-12-24T21:55:02.455Z,102374.00
2018-12-24T21:57:31.857Z,102382.00
2018-12-24T22:00:01.292Z,102395.00
2018-12-24T22:02:30.678Z,102390.00
2018-12-24T22:05:00.043Z,102391.00
2018-12-24T22:07:29.607Z,102408.00
2018-12-24T22:09:58.993Z,102395.00
2018-12-24T22:12:28.728Z,102399.00
2018-12-24T22:14:58.097Z,102403.00
2018-12-24T22:17:27.659Z,102401.00
2018-12-24T22:19:57.020Z,102408.00
2018-12-24T22:22:26.640Z,102408.00
2018-12-24T22:24:56.028Z,102397.00
2018-12-24T22:27:25.399Z,102405.00
2018-12-24T22:29:55.038Z,102403.00
2018-12-24T22:32:24.425Z,102401.00
2018-12-24T22:34:53.806Z,102398.00
2018-12-24T22:37:23.184Z,102398.00
2018-12-24T22:39:53.471Z,102395.00
2018-12-24T22:42:23.102Z,102402.00
2018-12-24T22:44:52.472Z,102400.00
2018-12-24T22:47:21.864Z,102398.00
2018-12-24T22:49:51.227Z,102393.00
2018-12-24T22:52:20.599Z,102388.00
2018-12-24T22:54:49.972Z,102392.00
2018-12-24T22:57:19.340Z,102391.00
2018-12-24T22:59:48.719Z,102388.00
2018-12-24T23:02:18.348Z,102391.00
2018-12-24T23:04:47.740Z,102391.00
2018-12-24T23:07:17.130Z,102385.00
2018-12-24T23:09:46.512Z,102385.00
2018-12-24T23:12:15.878Z,102397.00
2018-12-24T23:14:45.537Z,102385.00
2018-12-24T23:17:14.957Z,102386.00
2018-12-24T23:19:44.325Z,102374.00
2018-12-24T23:22:13.694Z,102376.00
2018-12-24T23:24:43.393Z,102375.00
2018-12-24T23:27:12.773Z,102377.00
2018-12-24T23:29:42.148Z,102382.00
2018-12-24T23:32:11.525Z,102384.00
2018-12-24T23:34:40.893Z,102384.00
2018-12-24T23:37:10.266Z,102383.00
2018-12-24T23:39:39.891Z,102377.00
2018-12-24T23:42:09.263Z,102376.00
2018-12-24T23:44:39.188Z,102391.00
2018-12-24T23:47:09.005Z,102389.00
2018-12-24T23:49:38.698Z,102394.00
2018-12-24T23:52:08.073Z,102393.00
2018-12-24T23:54:37.447Z,102409.00
2018-12-24T23:57:06.831Z,102407.00
2018-12-24T23:59:36.208Z,102415.00
